Paducah, KY (42001)

12:43 PM CST on November 28, 2014 (GMT -0600)
Ricks Place Paducah, KY | Change Station
CLOSE
Current Station
Personal Weather Station
Location: Paducah, KY
Elevation: 351 ft
Nearby Weather Stations

Elev 351 ft 37.07 °N, 88.62 °W | Updated 12 minutes ago

Clear
Clear
45.7 °F
Feels Like 44 °F
N
3.7
Wind Variable Wind from SSE

Today
High -- | Low -- °F
--% Chance of Precip.
Yesterday
High -- | Low -- °F
Precip. -- in
6:46 AM 4:38 PM
Waxing Crescent, 43% visible
Pressure 30.26 in
Visibility 10.0 miles
Clouds Clear
Windchill 44 °F
Dew Point 33 °F
Humidity 60%
Rainfall 0.00 in
Snow Depth Not available.
UV 3 out of 12
Pollen 1.60 out of 12
Air Quality Not available.
Flu Activity Not available.
METAR KPAH 281753Z 20009G16KT 10SM CLR 06/M02 A3025 RMK AO2 PRESFR SLP245 T00611017 10061 21033 58041

More Conditions Fewer Conditions

Pressure 30.26 in
Visibility 10.0 miles
Clouds Clear
Windchill 44 °F
Dew Point 33 °F
Humidity 60%
Rainfall 0.00 in
Snow Depth Not available.
UV 3 out of 12
Pollen 1.60 out of 12
Air Quality Not available.
Flu Activity Not available.
METAR KPAH 281753Z 20009G16KT 10SM CLR 06/M02 A3025 RMK AO2 PRESFR SLP245 T00611017 10061 21033 58041

More Conditions Fewer Conditions

10-Day Weather Forecast

Almanac

Astronomy

Nov. 28, 2014 Rise Set
Actual Time
Civil Twilight
Nautical Twilight
Astronomical Twilight
Moon
Length of Visible Light
Length of Day
Tomorrow will be .
, % of the Moon is Illuminated

Today's Extremes

State Highs State Lows

Community

WunderPhotos

Upload Photos

1,774,257 photos uploaded!

WunderBlogs® & News

Nearby

Air Quality

  Air Quality AQ Index Pollutant
Not available.

Snow Depth

Station Depth Elevation

Earthquake Activity

City Distance Mag. Time & Date
Minimum magnitude displayed is 2.5.

Coastal Water Temperatures

Place Temperature

Nearby Weather Stations